CheckWX is a tool to help pilots better visualize weather data.  It is not intended as a substitute for an official pre-flight weather briefing.

21:51:35 UTC

OSLK TAF
Bassel Al-Assad International Airport
Latakia, Syria
OSLK 021000Z 0212/0312 23015KT 9999 SCT030 BKN100 TEMPO 0212/0312 23015G30KT 5000 TSRA FEW026 TCU SCT030 BKN090

Apr-2@
12:00 UTC

Apr-2 @ 12:00 UTC

Apr-3@
12:00 UTC

Apr-3 @ 12:00 UTC

TAF OSLK 021000Z 0212/0312 23015KT 9999 SCT030 BKN100
Wind
  • 230° at 15 KTS
Cloud Levels
  • Scattered at 3,000' AGL
  • Broken at 10,000' AGL

Apr-2@
12:00 UTC

Apr-2 @ 12:00 UTC

Apr-3@
12:00 UTC

Apr-3 @ 12:00 UTC

TEMPO 0212/0312 23015G30KT 5000 TSRA FEW026 TCU SCT030 BKN090

Temporary

Temporary Changes expected for less than half the time period

Wind
  • 230° at 15 KTS
  • {Gusting to 30 KTS
Conditions
Thunderstorm, Rain
Cloud Levels
  • Few at 2,600' AGL
  • Scattered at 3,000' AGL
  • Broken at 9,000' AGL